Time;durP1;ratioP1;P1;durP2;ratioP2;P2;SDS_P1;SDS_P2;PMS_P1;PMS_P2;Temp;Humidity;BMP_temperature;BMP_pressure;BME280_temperature;BME280_humidity;BME280_pressure;Samples;Min_cycle;Max_cycle;Signal;HPM_P1;HPM_P2
2022/09/22 00:00:15;;;;;;;2.23;0.97;;;;;;;16.99;62.28;100968.38;5072578;28;20235;-67
2022/09/22 00:02:41;;;;;;;2.63;1.10;;;;;;;17.00;62.88;100978.63;5105234;28;20402;-66
2022/09/22 00:05:07;;;;;;;2.80;1.20;;;;;;;16.99;62.46;100974.09;5070867;28;20549;-66
2022/09/22 00:07:32;;;;;;;2.10;1.40;;;;;;;16.98;62.47;100966.72;5070427;28;20863;-67
2022/09/22 00:09:58;;;;;;;2.77;1.20;;;;;;;16.99;62.37;100969.22;5072572;28;20224;-66
2022/09/22 00:12:23;;;;;;;1.50;0.90;;;;;;;16.98;62.42;100961.84;5073126;28;20570;-66
2022/09/22 00:14:48;;;;;;;2.73;1.07;;;;;;;16.98;62.40;100970.41;5073040;28;20163;-66
2022/09/22 00:17:14;;;;;;;3.00;1.30;;;;;;;16.98;62.35;100959.00;5072286;28;20167;-67
2022/09/22 00:19:39;;;;;;;2.73;1.13;;;;;;;16.98;62.86;100961.84;5071821;28;20175;-66
2022/09/22 00:22:05;;;;;;;2.03;1.03;;;;;;;16.99;62.61;100965.53;5072539;28;20277;-66
2022/09/22 00:24:31;;;;;;;1.80;0.83;;;;;;;16.98;62.51;100959.00;5069586;28;20186;-67
2022/09/22 00:26:57;;;;;;;1.90;1.30;;;;;;;16.98;62.40;100961.00;5070048;28;20163;-66
2022/09/22 00:29:26;;;;;;;1.87;0.90;;;;;;;16.97;62.52;100954.50;5071786;28;20570;-67
2022/09/22 00:31:52;;;;;;;2.00;1.07;;;;;;;16.96;62.48;100957.69;5086809;28;20418;-67
2022/09/22 00:34:19;;;;;;;2.20;1.17;;;;;;;16.98;62.56;100963.88;5087813;28;20459;-67
2022/09/22 00:36:45;;;;;;;1.67;1.10;;;;;;;16.96;62.38;100955.66;5070733;28;20175;-67
2022/09/22 00:39:11;;;;;;;2.80;1.00;;;;;;;16.98;62.61;100950.44;5070836;28;20441;-66
2022/09/22 00:41:39;;;;;;;1.77;0.90;;;;;;;16.96;62.80;100949.94;5072576;28;20534;-66
2022/09/22 00:44:17;;;;;;;1.70;1.00;;;;;;;16.96;62.79;100947.09;5072669;28;20262;-66
2022/09/22 00:46:43;;;;;;;1.80;1.03;;;;;;;16.96;62.50;100946.28;5072400;28;20509;-67
2022/09/22 00:49:09;;;;;;;1.77;1.10;;;;;;;16.95;61.73;100951.16;5088273;28;20461;-66
2022/09/22 00:51:36;;;;;;;3.40;1.30;;;;;;;16.97;62.73;100954.50;5071067;28;20420;-67
2022/09/22 00:54:03;;;;;;;2.10;1.07;;;;;;;16.96;62.49;100946.28;5105034;28;20175;-66
2022/09/22 00:56:32;;;;;;;1.83;1.00;;;;;;;16.96;62.54;100949.13;5071152;28;20552;-66
2022/09/22 00:59:02;;;;;;;2.83;1.30;;;;;;;16.95;62.52;100954.00;5071840;28;20453;-66
2022/09/22 01:01:28;;;;;;;2.80;1.40;;;;;;;16.95;62.61;100950.34;5065273;28;20476;-67
2022/09/22 01:03:55;;;;;;;2.20;1.30;;;;;;;16.95;62.66;100950.34;5085188;28;20402;-66
2022/09/22 01:06:23;;;;;;;2.47;1.07;;;;;;;16.93;62.63;100950.69;5052282;28;20249;-67
2022/09/22 01:08:49;;;;;;;1.93;1.00;;;;;;;16.93;62.63;100946.97;5102710;28;20464;-66
2022/09/22 01:11:14;;;;;;;1.67;1.00;;;;;;;16.94;62.50;100948.63;5105063;28;20416;-67
2022/09/22 01:13:46;;;;;;;2.13;0.93;;;;;;;16.93;62.59;100946.97;5070835;28;20202;-67
2022/09/22 01:16:29;;;;;;;1.60;0.90;;;;;;;16.93;62.36;100953.53;5072980;28;20186;-67
2022/09/22 01:19:13;;;;;;;1.60;0.90;;;;;;;16.94;62.51;100948.63;5072615;28;20414;-67
2022/09/22 01:21:39;;;;;;;1.50;0.80;;;;;;;16.94;62.53;100951.50;5073065;28;20390;-66
2022/09/22 01:24:21;;;;;;;2.30;1.47;;;;;;;16.92;62.74;100946.16;5073215;28;20409;-66
2022/09/22 01:27:08;;;;;;;1.70;1.10;;;;;;;16.92;62.61;100949.03;5104817;28;20221;-66
2022/09/22 01:29:45;;;;;;;3.30;1.10;;;;;;;16.94;62.64;100946.63;5073002;28;20401;-66
2022/09/22 01:32:31;;;;;;;3.30;1.30;;;;;;;16.93;62.60;100935.56;5071637;28;21038;-66
2022/09/22 01:35:17;;;;;;;1.60;1.00;;;;;;;16.92;62.82;100933.91;5087770;28;20482;-66
2022/09/22 01:38:10;;;;;;;1.50;1.00;;;;;;;16.92;62.47;100942.47;5107782;28;20955;-66
2022/09/22 01:40:56;;;;;;;2.47;1.10;;;;;;;16.91;62.82;100938.78;5097863;28;20500;-67
2022/09/22 01:43:48;;;;;;;2.50;1.00;;;;;;;16.92;62.68;100929.06;5075589;28;20413;-67
2022/09/22 01:46:20;;;;;;;1.90;0.80;;;;;;;16.92;62.45;100925.38;5108661;28;20429;-66
2022/09/22 01:48:47;;;;;;;1.70;1.00;;;;;;;16.93;62.47;100929.88;5089846;28;20865;-66
2022/09/22 01:51:17;;;;;;;2.40;1.13;;;;;;;16.92;62.71;100931.91;5090475;28;20504;-66
2022/09/22 01:53:53;;;;;;;2.53;1.23;;;;;;;16.92;62.78;100928.22;5089969;28;20414;-66
2022/09/22 01:56:18;;;;;;;4.80;1.23;;;;;;;16.91;62.67;100933.06;5057835;28;20468;-66
2022/09/22 01:58:55;;;;;;;2.80;1.23;;;;;;;16.91;62.41;100927.38;5076391;28;20401;-66
2022/09/22 02:01:27;;;;;;;2.20;1.20;;;;;;;16.91;62.48;100927.38;5057893;28;20194;-66
2022/09/22 02:04:13;;;;;;;2.03;0.90;;;;;;;16.91;62.49;100933.06;5058925;28;20755;-66
2022/09/22 02:06:50;;;;;;;2.10;1.00;;;;;;;16.91;62.46;100926.56;5059634;28;20404;-66
2022/09/22 02:09:17;;;;;;;2.43;0.97;;;;;;;16.90;62.51;100931.41;5046194;28;20543;-67
2022/09/22 02:11:43;;;;;;;2.03;1.30;;;;;;;16.91;62.52;100932.25;5075546;28;20768;-66
2022/09/22 02:14:08;;;;;;;2.03;1.03;;;;;;;16.90;62.21;100934.25;5073389;28;20424;-66
2022/09/22 02:16:34;;;;;;;1.60;0.97;;;;;;;16.91;62.61;100935.09;5073801;28;20168;-67
2022/09/22 02:19:22;;;;;;;2.93;1.30;;;;;;;16.90;62.45;100934.25;5073536;28;20205;-67
2022/09/22 02:21:48;;;;;;;3.23;1.17;;;;;;;16.89;62.46;100935.47;5073576;28;20179;-66
2022/09/22 02:24:33;;;;;;;1.70;0.90;;;;;;;16.90;62.64;100936.31;5074368;28;20432;-66
2022/09/22 02:27:02;;;;;;;1.80;0.90;;;;;;;16.91;62.36;100940.81;5074825;28;20502;-67
2022/09/22 02:29:29;;;;;;;1.80;0.90;;;;;;;16.89;62.37;100931.75;5074498;28;20436;-66
2022/09/22 02:31:55;;;;;;;2.10;1.10;;;;;;;16.89;62.65;100929.75;5058730;28;20432;-66
2022/09/22 02:34:21;;;;;;;1.70;0.97;;;;;;;16.90;62.32;100931.41;5074180;28;20515;-66
2022/09/22 02:36:51;;;;;;;2.17;1.03;;;;;;;16.89;62.52;100924.06;5075827;28;20167;-66
2022/09/22 02:39:23;;;;;;;2.57;1.20;;;;;;;16.88;62.32;100928.09;5108626;28;20417;-66
2022/09/22 02:42:03;;;;;;;2.53;1.23;;;;;;;16.88;62.26;100928.09;5076542;28;20845;-66
2022/09/22 02:44:33;;;;;;;2.33;1.10;;;;;;;16.88;62.33;100925.25;5075507;28;20440;-67
2022/09/22 02:47:05;;;;;;;1.70;0.90;;;;;;;16.88;62.60;100922.41;5106546;28;20417;-66
2022/09/22 02:49:30;;;;;;;1.90;0.90;;;;;;;16.88;62.58;100922.41;5090545;28;20564;-67
2022/09/22 02:51:55;;;;;;;2.00;1.27;;;;;;;16.89;62.57;100926.06;5074906;28;20877;-66
2022/09/22 02:54:21;;;;;;;2.10;1.27;;;;;;;16.87;62.42;100920.72;5091502;28;20182;-66
2022/09/22 02:56:47;;;;;;;2.00;0.93;;;;;;;16.87;62.42;100929.28;5090889;28;20666;-66
2022/09/22 02:59:12;;;;;;;2.07;1.17;;;;;;;16.88;62.39;100930.09;5074639;28;20247;-66
2022/09/22 03:01:38;;;;;;;1.80;1.07;;;;;;;16.88;62.59;100927.25;5073504;28;20167;-66
2022/09/22 03:04:03;;;;;;;2.10;1.00;;;;;;;16.87;62.49;100920.72;5073771;28;20158;-66
2022/09/22 03:06:29;;;;;;;1.80;1.20;;;;;;;16.87;62.43;100926.44;5072194;28;20270;-67
2022/09/22 03:08:54;;;;;;;1.60;0.90;;;;;;;16.88;62.38;100918.69;5072960;28;20198;-66
2022/09/22 03:11:20;;;;;;;2.67;1.10;;;;;;;16.85;62.47;100920.25;5073235;28;20175;-66
2022/09/22 03:13:45;;;;;;;1.77;1.07;;;;;;;16.86;62.55;100916.19;5072622;28;20202;-66
2022/09/22 03:16:10;;;;;;;1.87;1.00;;;;;;;16.86;62.67;100918.22;5072955;28;20171;-66
2022/09/22 03:18:36;;;;;;;2.03;1.13;;;;;;;16.86;62.41;100924.75;5073063;28;20209;-66
2022/09/22 03:21:01;;;;;;;1.70;1.03;;;;;;;16.86;62.58;100923.94;5106253;28;20166;-66
2022/09/22 03:23:27;;;;;;;2.07;1.10;;;;;;;16.85;62.54;100923.09;5073454;28;20175;-66
2022/09/22 03:25:53;;;;;;;2.20;1.17;;;;;;;16.86;62.10;100918.22;5073114;28;20182;-66
2022/09/22 03:28:19;;;;;;;2.13;1.00;;;;;;;16.85;62.32;100916.56;5073227;28;20221;-66
2022/09/22 03:30:44;;;;;;;1.80;1.07;;;;;;;16.85;62.56;100917.38;5073287;28;20155;-66
2022/09/22 03:33:09;;;;;;;2.43;1.27;;;;;;;16.84;62.58;100918.59;5071778;28;20428;-66
2022/09/22 03:35:35;;;;;;;1.93;1.00;;;;;;;16.85;62.25;100916.56;5071453;28;20622;-66
2022/09/22 03:38:00;;;;;;;2.33;1.10;;;;;;;16.84;62.34;100915.72;5073416;28;20252;-67
2022/09/22 03:40:26;;;;;;;1.90;1.20;;;;;;;16.84;62.45;100921.44;5073424;28;20631;-66
2022/09/22 03:42:51;;;;;;;3.40;1.20;;;;;;;16.85;62.38;100930.84;5071333;28;20159;-66
2022/09/22 03:45:17;;;;;;;1.80;1.03;;;;;;;16.84;62.37;100921.44;5072339;28;20198;-66
2022/09/22 03:47:42;;;;;;;2.57;1.30;;;;;;;16.84;62.45;100920.59;5071424;28;20213;-66
2022/09/22 03:50:08;;;;;;;2.57;0.90;;;;;;;16.84;62.42;100917.72;5073174;28;20194;-66
2022/09/22 03:52:34;;;;;;;2.43;1.20;;;;;;;16.84;62.33;100914.88;5072650;28;20206;-66
2022/09/22 03:55:01;;;;;;;6.70;1.27;;;;;;;16.83;62.34;100914.06;5071037;28;20414;-66
2022/09/22 03:57:27;;;;;;;1.93;1.00;;;;;;;16.83;62.73;100916.91;5072591;28;20660;-66
2022/09/22 03:59:53;;;;;;;1.90;1.00;;;;;;;16.82;62.61;100912.41;5055291;28;20444;-66
2022/09/22 04:02:18;;;;;;;1.73;1.03;;;;;;;16.81;62.58;100905.03;5073927;28;20409;-66
2022/09/22 04:04:44;;;;;;;1.60;1.00;;;;;;;16.82;62.31;100915.25;5055911;28;20206;-65
2022/09/22 04:07:09;;;;;;;1.70;1.10;;;;;;;16.83;62.39;100914.06;5072142;28;20232;-66
2022/09/22 04:09:35;;;;;;;3.47;1.33;;;;;;;16.82;62.51;100911.56;5072132;28;20553;-66
2022/09/22 04:12:00;;;;;;;2.03;1.20;;;;;;;16.81;62.32;100910.72;5106582;28;20170;-66
2022/09/22 04:14:26;;;;;;;1.73;0.90;;;;;;;16.82;62.48;100905.88;5072653;28;20270;-66
2022/09/22 04:16:52;;;;;;;2.03;1.07;;;;;;;16.82;62.49;100908.72;5071564;28;20167;-66
2022/09/22 04:19:18;;;;;;;1.77;1.00;;;;;;;16.81;62.29;100916.44;5072194;28;20148;-66
2022/09/22 04:21:44;;;;;;;2.17;1.27;;;;;;;16.81;62.44;100916.44;5071165;28;20462;-66
2022/09/22 04:24:10;;;;;;;1.97;0.90;;;;;;;16.82;62.79;100909.56;5072344;28;20175;-66
2022/09/22 04:26:37;;;;;;;1.87;1.07;;;;;;;16.82;62.30;100908.72;5088022;28;20182;-66
2022/09/22 04:29:02;;;;;;;2.90;1.10;;;;;;;16.82;62.39;100912.41;5070289;28;20986;-66
2022/09/22 04:31:27;;;;;;;2.40;1.27;;;;;;;16.80;62.44;100909.06;5071241;28;20425;-67
2022/09/22 04:33:56;;;;;;;2.27;1.03;;;;;;;16.80;62.25;100908.25;5073479;28;20171;-66
2022/09/22 04:36:21;;;;;;;1.70;0.97;;;;;;;16.79;62.21;100910.25;5073555;28;20162;-66
2022/09/22 04:38:47;;;;;;;1.60;0.97;;;;;;;16.80;62.30;100917.63;5073428;28;20414;-67
2022/09/22 04:41:12;;;;;;;1.90;1.17;;;;;;;16.79;62.31;100906.56;5073048;28;20541;-66
2022/09/22 04:43:38;;;;;;;2.20;1.17;;;;;;;16.80;62.14;100911.09;5105382;28;20630;-66
2022/09/22 04:46:03;;;;;;;2.10;1.00;;;;;;;16.80;62.20;100911.91;5072178;28;20178;-66
2022/09/22 04:48:29;;;;;;;1.90;1.00;;;;;;;16.79;62.76;100907.41;5071736;28;20653;-66
2022/09/22 04:50:54;;;;;;;1.70;1.13;;;;;;;16.78;62.23;100910.59;5071431;28;20270;-66
2022/09/22 04:53:20;;;;;;;2.47;1.30;;;;;;;16.79;62.57;100910.25;5073115;28;20163;-66
2022/09/22 04:55:45;;;;;;;2.30;1.40;;;;;;;16.80;62.52;100908.25;5071529;28;20222;-67
2022/09/22 04:58:10;;;;;;;2.17;1.30;;;;;;;16.78;62.45;100911.44;5071661;28;20163;-65
2022/09/22 05:00:36;;;;;;;1.70;0.97;;;;;;;16.79;62.56;100909.41;5072085;28;20164;-65
2022/09/22 05:03:07;;;;;;;1.57;1.00;;;;;;;16.77;62.47;100906.94;5072424;28;20213;-65
2022/09/22 05:05:32;;;;;;;2.30;1.30;;;;;;;16.79;62.29;100910.25;5072346;28;20246;-64
2022/09/22 05:07:58;;;;;;;2.00;1.20;;;;;;;16.79;62.18;100915.97;5072376;28;20448;-65
2022/09/22 05:10:24;;;;;;;2.53;1.33;;;;;;;16.79;62.23;100909.41;5073186;28;20201;-65
2022/09/22 05:12:50;;;;;;;2.00;1.20;;;;;;;16.79;62.32;100913.09;5073360;28;20401;-65
2022/09/22 05:15:15;;;;;;;1.80;1.20;;;;;;;16.77;62.49;100918.34;5105204;28;20163;-65
2022/09/22 05:17:48;;;;;;;1.63;1.00;;;;;;;16.76;62.40;100919.50;5073057;28;20562;-65
2022/09/22 05:20:13;;;;;;;1.73;1.00;;;;;;;16.76;62.09;100919.50;5071761;28;20265;-65
2022/09/22 05:22:39;;;;;;;1.87;1.10;;;;;;;16.77;62.49;100926.06;5071911;28;20575;-65
2022/09/22 05:25:09;;;;;;;1.93;0.80;;;;;;;16.77;62.43;100931.75;5089231;28;20200;-65
2022/09/22 05:27:36;;;;;;;1.73;1.10;;;;;;;16.76;62.01;100928.06;5088558;28;20190;-65
2022/09/22 05:30:01;;;;;;;2.20;1.27;;;;;;;16.76;62.68;100930.91;5105973;28;21141;-65
2022/09/22 05:32:27;;;;;;;2.87;1.03;;;;;;;16.76;62.47;100936.63;5073869;28;20414;-65
2022/09/22 05:34:52;;;;;;;1.77;1.13;;;;;;;16.76;62.53;100942.31;5074082;28;20182;-65
2022/09/22 05:37:18;;;;;;;1.97;1.03;;;;;;;16.76;62.42;100938.66;5073564;28;20175;-65
2022/09/22 05:39:43;;;;;;;2.10;1.30;;;;;;;16.76;62.33;100944.34;5073069;28;20171;-65
2022/09/22 05:42:08;;;;;;;1.90;0.93;;;;;;;16.75;62.29;100934.16;5105098;28;20517;-65
2022/09/22 05:44:34;;;;;;;2.47;1.20;;;;;;;16.75;62.49;100928.44;5072927;28;20245;-65
2022/09/22 05:46:59;;;;;;;1.90;1.27;;;;;;;16.75;62.28;100931.28;5071330;28;20630;-65
2022/09/22 05:49:25;;;;;;;2.23;1.17;;;;;;;16.74;62.32;100938.16;5072547;28;20218;-65
2022/09/22 05:51:54;;;;;;;2.30;0.93;;;;;;;16.75;62.31;100937.00;5072965;28;20170;-65
2022/09/22 05:54:19;;;;;;;1.60;0.90;;;;;;;16.75;62.34;100934.16;5072749;28;20179;-65
2022/09/22 05:56:45;;;;;;;2.20;1.30;;;;;;;16.75;62.09;100940.66;5072550;28;20472;-65
2022/09/22 05:59:10;;;;;;;2.50;1.30;;;;;;;16.73;62.03;100943.03;5072548;28;20526;-66
2022/09/22 06:01:37;;;;;;;2.20;1.20;;;;;;;16.73;62.23;100943.03;5073419;28;20167;-65
2022/09/22 06:04:02;;;;;;;2.33;1.33;;;;;;;16.74;62.50;100943.84;5073467;28;20187;-65
2022/09/22 06:06:28;;;;;;;2.17;1.30;;;;;;;16.73;62.11;100936.50;5073286;28;20486;-66
2022/09/22 06:08:53;;;;;;;1.90;1.17;;;;;;;16.73;62.44;100930.78;5072374;28;20665;-65
2022/09/22 06:11:18;;;;;;;2.43;1.20;;;;;;;16.72;62.43;100935.69;5073397;28;20166;-65
2022/09/22 06:13:44;;;;;;;2.30;1.20;;;;;;;16.73;62.24;100939.34;5073411;28;20164;-65
2022/09/22 06:16:10;;;;;;;1.50;0.90;;;;;;;16.72;62.00;100934.84;5073124;28;20175;-65
2022/09/22 06:18:35;;;;;;;1.63;1.00;;;;;;;16.72;62.12;100935.69;5072315;28;20405;-65
2022/09/22 06:21:01;;;;;;;2.07;1.20;;;;;;;16.72;62.13;100935.69;5072955;28;20183;-65
2022/09/22 06:23:26;;;;;;;2.10;1.30;;;;;;;16.72;62.44;100934.84;5074808;28;20665;-65
2022/09/22 06:25:56;;;;;;;2.43;1.37;;;;;;;16.71;62.48;100931.13;5075587;28;20186;-65
2022/09/22 06:28:22;;;;;;;1.80;1.00;;;;;;;16.71;62.49;100936.03;5074870;28;20286;-65
2022/09/22 06:30:48;;;;;;;2.57;1.30;;;;;;;16.72;62.20;100932.81;5076372;28;20877;-65
2022/09/22 06:33:14;;;;;;;2.63;1.40;;;;;;;16.71;62.33;100925.44;5076016;28;20302;-65
2022/09/22 06:35:40;;;;;;;1.90;1.20;;;;;;;16.71;61.68;100933.19;5076329;28;20792;-66
2022/09/22 06:38:06;;;;;;;1.80;1.10;;;;;;;16.72;62.11;100932.81;5058099;28;20254;-65
2022/09/22 06:40:32;;;;;;;1.93;1.17;;;;;;;16.72;62.22;100929.13;5074707;28;20409;-66
2022/09/22 06:42:58;;;;;;;2.13;1.00;;;;;;;16.71;62.22;100934.00;5059364;28;20187;-66
2022/09/22 06:45:25;;;;;;;2.07;1.17;;;;;;;16.70;62.02;100935.19;5075862;28;20421;-66
2022/09/22 06:47:51;;;;;;;2.30;1.10;;;;;;;16.70;62.47;100932.34;5059511;28;20453;-65
2022/09/22 06:50:17;;;;;;;2.67;1.30;;;;;;;16.71;62.08;100934.00;5077173;28;20453;-65
2022/09/22 06:52:42;;;;;;;2.53;1.40;;;;;;;16.70;61.71;100926.63;5075762;28;20187;-66
2022/09/22 06:55:09;;;;;;;1.70;0.90;;;;;;;16.70;62.33;100925.81;5076184;28;20175;-66
2022/09/22 06:57:35;;;;;;;1.83;1.20;;;;;;;16.69;62.33;100929.81;5078063;28;20301;-66
2022/09/22 07:00:02;;;;;;;2.27;1.17;;;;;;;16.70;62.00;100923.78;5077897;28;20467;-66
2022/09/22 07:02:27;;;;;;;1.73;1.27;;;;;;;16.70;62.40;100928.66;5077577;28;20186;-66
2022/09/22 07:04:57;;;;;;;2.10;1.20;;;;;;;16.70;62.72;100920.94;5076641;28;20401;-66
2022/09/22 07:07:26;;;;;;;2.27;1.30;;;;;;;16.71;61.99;100918.91;5075781;28;20183;-66
2022/09/22 07:09:52;;;;;;;1.80;1.00;;;;;;;16.70;62.28;100920.94;5075789;28;20432;-66
2022/09/22 07:12:18;;;;;;;1.70;1.10;;;;;;;16.69;61.97;100912.72;5077805;28;20409;-66
2022/09/22 07:14:47;;;;;;;2.00;1.27;;;;;;;16.70;62.00;100922.97;5109724;28;20317;-66
2022/09/22 07:17:13;;;;;;;1.80;0.93;;;;;;;16.70;61.98;100920.13;5076519;28;20822;-66
2022/09/22 07:19:38;;;;;;;1.60;0.90;;;;;;;16.68;62.38;100923.31;5077807;28;20418;-66
2022/09/22 07:22:04;;;;;;;2.40;1.60;;;;;;;16.69;62.27;100919.28;5078055;28;20663;-66
2022/09/22 07:24:29;;;;;;;2.83;1.30;;;;;;;16.69;62.21;100916.41;5077770;28;20855;-66
2022/09/22 07:26:55;;;;;;;1.57;1.00;;;;;;;16.69;62.45;100916.41;5078306;28;20171;-66
2022/09/22 07:29:20;;;;;;;1.73;0.93;;;;;;;16.71;62.05;100918.91;5078323;28;20198;-66
2022/09/22 07:31:45;;;;;;;2.30;1.20;;;;;;;16.70;61.89;100914.41;5078626;28;20528;-66
2022/09/22 07:34:11;;;;;;;1.60;1.00;;;;;;;16.69;62.24;100919.28;5077354;28;20551;-66
2022/09/22 07:36:37;;;;;;;1.90;1.20;;;;;;;16.68;62.02;100911.06;5076366;28;20581;-66
2022/09/22 07:39:06;;;;;;;2.50;1.20;;;;;;;16.67;62.33;100918.81;5076863;28;20944;-66
2022/09/22 07:41:33;;;;;;;2.00;1.00;;;;;;;16.68;62.39;100919.63;5091339;28;20214;-66
2022/09/22 07:46:43;;;;;;;2.37;1.30;;;;;;;16.67;62.40;100920.81;5060448;28;20424;-66
2022/09/22 07:49:09;;;;;;;2.40;1.40;;;;;;;16.68;62.38;100916.75;5073874;28;20469;-66
2022/09/22 07:51:36;;;;;;;2.20;1.13;;;;;;;16.68;62.45;100922.47;5075137;28;20228;-66
2022/09/22 07:54:06;;;;;;;2.20;1.20;;;;;;;16.69;62.21;100915.56;5074378;28;20937;-66
2022/09/22 07:56:35;;;;;;;2.17;1.07;;;;;;;16.68;61.96;100914.75;5074227;28;20869;-66
2022/09/22 07:59:06;;;;;;;1.90;1.00;;;;;;;16.68;62.08;100911.91;5074204;28;20425;-66
2022/09/22 08:01:32;;;;;;;2.57;1.13;;;;;;;16.68;62.27;100916.75;5075969;28;20488;-66
2022/09/22 08:03:57;;;;;;;1.97;1.00;;;;;;;16.66;62.37;100917.13;5076404;28;20436;-66
2022/09/22 08:06:22;;;;;;;1.70;0.90;;;;;;;16.67;62.25;100910.25;5075828;28;20159;-66
2022/09/22 08:08:52;;;;;;;1.50;0.80;;;;;;;16.66;62.25;100908.56;5074509;28;20203;-66
2022/09/22 08:11:24;;;;;;;1.63;0.90;;;;;;;16.67;62.08;100913.09;5107207;28;20206;-66
2022/09/22 08:13:54;;;;;;;1.90;0.90;;;;;;;16.68;62.04;100916.75;5089274;28;20432;-66
2022/09/22 08:16:21;;;;;;;1.90;1.20;;;;;;;16.68;62.14;100911.06;5106903;28;21224;-66
2022/09/22 08:18:55;;;;;;;2.27;1.30;;;;;;;16.67;62.33;100907.41;5075799;28;20436;-66
2022/09/22 08:21:28;;;;;;;2.20;1.00;;;;;;;16.65;62.62;100901.19;5075642;28;20421;-66
2022/09/22 08:23:54;;;;;;;2.17;1.10;;;;;;;16.66;62.68;100902.84;5075521;28;20417;-66
2022/09/22 08:26:20;;;;;;;1.60;0.97;;;;;;;16.66;62.37;100900.00;5075343;28;20778;-66
2022/09/22 08:28:46;;;;;;;2.10;1.27;;;;;;;16.65;62.05;100895.50;5090399;28;20221;-66
2022/09/22 08:31:12;;;;;;;1.80;0.97;;;;;;;16.65;62.32;100895.50;5074991;28;20182;-66
2022/09/22 08:33:39;;;;;;;1.83;1.10;;;;;;;16.65;62.30;100892.66;5053433;28;20410;-66
2022/09/22 08:36:05;;;;;;;2.00;1.20;;;;;;;16.66;62.40;100891.47;5053229;28;20270;-66
2022/09/22 08:38:32;;;;;;;1.70;1.03;;;;;;;16.66;62.28;100891.47;5057074;28;20436;-66
2022/09/22 08:41:28;;;;;;;1.90;1.10;;;;;;;16.68;61.95;100897.66;5107168;28;20182;-66
2022/09/22 08:44:00;;;;;;;2.87;1.30;;;;;;;16.65;62.47;100895.50;5075210;28;20480;-66
2022/09/22 08:46:44;;;;;;;3.10;1.30;;;;;;;16.66;61.88;100900.00;5074398;28;20408;-66
2022/09/22 08:52:24;;;;;;;2.17;1.23;;;;;;;16.66;62.31;100902.84;5073864;28;20412;-66
2022/09/22 08:54:49;;;;;;;2.20;1.40;;;;;;;16.65;62.27;100892.66;5104039;28;20893;-66
2022/09/22 08:57:24;;;;;;;1.70;0.97;;;;;;;16.67;62.39;100898.00;5105687;28;20464;-66
2022/09/22 09:00:10;;;;;;;2.27;1.17;;;;;;;16.67;62.36;100898.00;5074136;28;20527;-66
2022/09/22 09:02:43;;;;;;;2.30;1.00;;;;;;;16.66;62.07;100897.16;5057896;28;20409;-66
2022/09/22 09:05:14;;;;;;;2.90;1.50;;;;;;;16.67;62.26;100893.16;5074147;28;20464;-67
2022/09/22 09:07:57;;;;;;;1.83;1.07;;;;;;;16.67;62.39;100892.31;5076076;28;20964;-66
2022/09/22 09:10:41;;;;;;;1.97;1.03;;;;;;;16.67;62.29;100892.31;5108300;28;20405;-66
2022/09/22 09:13:19;;;;;;;2.30;1.10;;;;;;;16.66;62.25;100888.59;5076416;28;20428;-66
2022/09/22 09:15:51;;;;;;;1.67;1.07;;;;;;;16.68;62.00;100888.25;5090814;28;20393;-66
2022/09/22 09:18:19;;;;;;;1.73;0.90;;;;;;;16.67;62.31;100889.44;5073731;28;21185;-66
2022/09/22 09:20:46;;;;;;;1.50;0.80;;;;;;;16.68;62.23;100893.97;5074807;28;20409;-66
2022/09/22 09:23:25;;;;;;;1.60;1.10;;;;;;;16.67;62.14;100904.56;5107296;28;20417;-66
2022/09/22 09:25:52;;;;;;;1.73;0.93;;;;;;;16.68;62.26;100899.66;5090311;28;20421;-66
2022/09/22 09:28:23;;;;;;;3.73;1.10;;;;;;;16.65;62.02;100895.50;5075097;28;20480;-66
2022/09/22 09:30:50;;;;;;;1.60;0.90;;;;;;;16.67;61.96;100892.31;5073913;28;20413;-66
2022/09/22 09:33:53;;;;;;;1.70;0.90;;;;;;;16.67;62.50;100896.00;5074256;28;20413;-66
2022/09/22 09:36:21;;;;;;;1.77;1.00;;;;;;;16.67;62.08;100893.16;5075130;28;20381;-66
2022/09/22 09:38:56;;;;;;;2.13;1.27;;;;;;;16.69;62.10;100887.06;5075090;28;20437;-66
2022/09/22 09:41:26;;;;;;;1.73;0.97;;;;;;;16.68;61.88;100900.50;5072730;28;20492;-66
2022/09/22 09:43:53;;;;;;;2.03;1.07;;;;;;;16.67;62.20;100893.16;5071594;28;21018;-66
2022/09/22 09:46:46;;;;;;;1.90;1.00;;;;;;;16.68;62.21;100894.81;5071245;28;20423;-67
2022/09/22 09:49:16;;;;;;;2.23;1.10;;;;;;;16.67;62.31;100881.75;5071282;28;20461;-66
2022/09/22 09:51:49;;;;;;;1.70;1.10;;;;;;;16.66;62.45;100882.91;5070282;28;20416;-66
2022/09/22 09:54:16;;;;;;;2.37;1.37;;;;;;;16.65;62.33;100881.25;5071230;28;20435;-66
2022/09/22 09:57:00;;;;;;;1.63;1.00;;;;;;;16.67;62.24;100884.59;5053406;28;20468;-66
2022/09/22 10:02:19;;;;;;;1.53;1.00;;;;;;;16.64;62.30;100873.88;5104548;28;20454;-66
2022/09/22 10:04:52;;;;;;;2.17;1.27;;;;;;;16.65;62.50;100866.19;5074165;28;20444;-66
2022/09/22 10:07:22;;;;;;;2.17;1.10;;;;;;;16.67;62.22;100860.94;5091102;28;20432;-66
2022/09/22 10:09:48;;;;;;;2.30;1.40;;;;;;;16.65;62.48;100864.13;5090999;28;20829;-66
2022/09/22 10:12:30;;;;;;;2.20;1.13;;;;;;;16.67;62.03;100855.25;5075446;28;20425;-66
2022/09/22 10:14:57;;;;;;;1.93;1.10;;;;;;;16.66;62.28;100857.25;5077630;28;20409;-66
2022/09/22 10:17:26;;;;;;;1.50;0.90;;;;;;;16.65;62.51;100849.06;5060116;28;20534;-66
2022/09/22 10:19:52;;;;;;;1.53;1.00;;;;;;;16.65;62.55;100849.88;5075942;28;20425;-66
2022/09/22 10:22:26;;;;;;;2.03;1.13;;;;;;;16.65;62.25;100841.34;5077033;28;20413;-66
2022/09/22 10:24:59;;;;;;;2.23;1.10;;;;;;;16.65;62.18;100838.50;5074546;28;20418;-66
2022/09/22 10:27:26;;;;;;;2.43;1.40;;;;;;;16.66;62.38;100837.28;5074024;28;20915;-66
2022/09/22 10:30:10;;;;;;;1.60;0.87;;;;;;;16.64;62.43;100839.69;5074107;28;21091;-66
2022/09/22 10:32:36;;;;;;;2.17;1.00;;;;;;;16.67;62.08;100829.59;5074944;28;20425;-66
2022/09/22 10:35:27;;;;;;;1.60;0.90;;;;;;;16.69;61.99;100830.06;5073501;28;20881;-66
2022/09/22 10:37:57;;;;;;;1.97;1.23;;;;;;;16.67;62.30;100824.72;5093526;28;20837;-67
2022/09/22 10:40:22;;;;;;;2.10;1.10;;;;;;;16.68;62.00;100826.38;5107610;28;20422;-66
2022/09/22 10:42:48;;;;;;;1.90;1.10;;;;;;;16.68;61.96;100828.38;5073227;28;20908;-66
2022/09/22 10:45:19;;;;;;;1.90;1.07;;;;;;;16.67;61.94;100827.56;5072650;28;20209;-66
2022/09/22 10:47:53;;;;;;;1.60;0.90;;;;;;;16.68;62.15;100834.94;5073437;28;20356;-66
2022/09/22 10:50:44;;;;;;;1.80;0.90;;;;;;;16.68;62.19;100828.38;5073156;28;20523;-66
2022/09/22 10:53:22;;;;;;;2.00;1.10;;;;;;;16.68;61.88;100828.38;5074080;28;20852;-66
2022/09/22 10:55:53;;;;;;;1.50;0.77;;;;;;;16.69;62.10;100833.75;5072803;28;20475;-66
2022/09/22 10:58:38;;;;;;;1.70;0.90;;;;;;;16.69;61.75;100830.06;5073584;28;20424;-66
2022/09/22 11:01:14;;;;;;;1.70;0.90;;;;;;;16.69;62.02;100825.19;5057174;28;20504;-66
2022/09/22 11:04:06;;;;;;;2.13;1.23;;;;;;;16.70;61.91;100823.19;5072422;28;20935;-66
2022/09/22 11:12:44;;;;;;;1.93;1.20;;;;;;;16.68;61.91;100809.28;5081259;28;20814;-66
2022/09/22 11:15:13;;;;;;;1.90;1.03;;;;;;;16.70;61.90;100806.09;5085590;28;20433;-66
2022/09/22 11:17:39;;;;;;;2.13;1.07;;;;;;;16.71;61.79;100813.44;5084569;28;20448;-66
2022/09/22 11:20:23;;;;;;;1.80;1.20;;;;;;;16.69;61.96;100810.09;5052580;28;20433;-66
2022/09/22 11:23:30;;;;;;;2.13;1.40;;;;;;;16.68;62.02;100797.88;5053474;28;20176;-66
2022/09/22 11:26:29;;;;;;;3.00;0.97;;;;;;;16.71;61.87;100802.84;5036948;28;20430;-66
2022/09/22 11:29:40;;;;;;;2.00;1.20;;;;;;;16.70;62.04;100801.19;5084251;28;20485;-66
2022/09/22 11:32:31;;;;;;;1.70;1.00;;;;;;;16.71;61.72;100802.84;5060715;28;20425;-66
2022/09/22 11:35:05;;;;;;;2.13;1.10;;;;;;;16.69;62.10;100799.53;5071712;28;20406;-66
2022/09/22 11:37:45;;;;;;;1.93;0.93;;;;;;;16.70;62.02;100798.34;5056123;28;20501;-66
2022/09/22 11:40:59;;;;;;;1.60;0.90;;;;;;;16.71;61.78;100802.84;5073781;28;20398;-66
2022/09/22 11:43:54;;;;;;;3.37;1.40;;;;;;;16.72;61.96;100798.84;5063737;28;20781;-66
2022/09/22 11:46:53;;;;;;;1.87;1.10;;;;;;;16.72;62.06;100793.13;5085893;28;20487;-66
2022/09/22 11:49:40;;;;;;;2.93;1.23;;;;;;;16.72;62.04;100790.28;5072824;28;20469;-66
2022/09/22 11:52:21;;;;;;;1.57;0.80;;;;;;;16.72;61.83;100790.28;5073067;28;20471;-66